createdAt,value
2023-11-12T00:02:21.659Z,7.19
2023-11-12T00:04:48.469Z,7.16
2023-11-12T00:07:15.158Z,7.11
2023-11-12T00:09:41.839Z,7.06
2023-11-12T00:12:09.820Z,7.02
2023-11-12T00:14:36.611Z,6.94
2023-11-12T00:17:03.302Z,6.93
2023-11-12T00:19:33.965Z,6.95
2023-11-12T00:22:00.518Z,6.92
2023-11-12T00:24:28.960Z,6.87
2023-11-12T00:26:55.541Z,6.84
2023-11-12T00:29:22.097Z,6.84
2023-11-12T00:31:48.754Z,6.82
2023-11-12T00:34:15.287Z,6.79
2023-11-12T00:36:43.984Z,6.79
2023-11-12T00:39:10.826Z,6.81
2023-11-12T00:41:40.295Z,6.83
2023-11-12T00:44:12.055Z,6.83
2023-11-12T00:46:39.359Z,6.82
2023-11-12T00:49:06.400Z,6.82
2023-11-12T00:51:33.767Z,6.81
2023-11-12T00:54:00.242Z,6.66
2023-11-12T00:56:26.813Z,6.63
2023-11-12T00:58:54.024Z,6.64
2023-11-12T01:01:21.020Z,6.72
2023-11-12T01:03:47.636Z,6.78
2023-11-12T01:06:14.249Z,6.80
2023-11-12T01:08:40.745Z,6.81
2023-11-12T01:11:07.454Z,6.85
2023-11-12T01:13:34.275Z,6.87
2023-11-12T01:16:02.124Z,6.92
2023-11-12T01:18:29.616Z,6.93
2023-11-12T01:20:56.217Z,6.94
2023-11-12T01:23:23.030Z,6.96
2023-11-12T01:25:49.623Z,6.97
2023-11-12T01:28:16.151Z,6.96
2023-11-12T01:30:42.673Z,6.96
2023-11-12T01:33:09.224Z,6.96
2023-11-12T01:35:35.814Z,6.96
2023-11-12T01:38:02.320Z,6.87
2023-11-12T01:40:29.539Z,6.87
2023-11-12T01:42:56.148Z,6.88
2023-11-12T01:45:23.071Z,6.89
2023-11-12T01:47:50.352Z,6.87
2023-11-12T01:50:17.069Z,6.84
2023-11-12T01:52:45.947Z,6.79
2023-11-12T01:55:14.603Z,6.72
2023-11-12T01:57:44.080Z,6.67
2023-11-12T02:00:12.991Z,6.65
2023-11-12T02:02:40.491Z,6.58
2023-11-12T02:05:07.783Z,6.54
2023-11-12T02:07:36.176Z,6.50
2023-11-12T02:10:10.647Z,6.42
2023-11-12T02:12:38.526Z,6.33
2023-11-12T02:15:06.834Z,6.27
2023-11-12T02:17:33.563Z,6.23
2023-11-12T02:20:08.676Z,6.13
2023-11-12T02:22:35.756Z,6.06
2023-11-12T02:25:03.386Z,6.05
2023-11-12T02:27:30.039Z,6.04
2023-11-12T02:29:56.596Z,6.03
2023-11-12T02:32:23.395Z,5.94
2023-11-12T02:34:49.917Z,5.94
2023-11-12T02:37:16.446Z,5.91
2023-11-12T02:39:43.027Z,5.84
2023-11-12T02:42:10.506Z,5.78
2023-11-12T02:44:39.566Z,5.75
2023-11-12T02:47:07.453Z,5.73
2023-11-12T02:50:11.398Z,5.68
2023-11-12T02:52:38.071Z,5.52
2023-11-12T02:55:04.687Z,5.34
2023-11-12T02:57:31.317Z,5.30
2023-11-12T02:59:57.798Z,5.28
2023-11-12T03:02:25.106Z,5.32
2023-11-12T03:04:52.046Z,5.33
2023-11-12T03:07:21.344Z,5.34
2023-11-12T03:09:50.942Z,5.34
2023-11-12T03:12:17.550Z,5.28
2023-11-12T03:14:47.247Z,5.19
2023-11-12T03:17:14.013Z,5.02
2023-11-12T03:19:40.641Z,4.81
2023-11-12T03:22:07.789Z,4.78
2023-11-12T03:24:36.240Z,4.68
2023-11-12T03:27:02.846Z,4.56
2023-11-12T03:29:29.652Z,4.53
2023-11-12T03:31:56.194Z,4.66
2023-11-12T03:34:25.893Z,4.70
2023-11-12T03:36:52.586Z,4.76
2023-11-12T03:39:19.403Z,4.71
2023-11-12T03:41:45.981Z,4.68
2023-11-12T03:44:12.443Z,4.69
2023-11-12T03:46:39.053Z,4.68
2023-11-12T03:49:08.688Z,4.64
2023-11-12T03:51:35.479Z,4.53
2023-11-12T03:54:03.368Z,4.36
2023-11-12T03:56:31.015Z,4.29
2023-11-12T03:58:58.702Z,4.26
2023-11-12T04:01:25.848Z,4.31
2023-11-12T04:03:53.367Z,4.48
2023-11-12T04:06:20.936Z,4.53
2023-11-12T04:08:50.270Z,4.49
2023-11-12T04:11:16.885Z,4.53
2023-11-12T04:13:43.414Z,4.63
2023-11-12T04:16:10.169Z,4.68
2023-11-12T04:18:37.922Z,4.73
2023-11-12T04:21:07.070Z,4.76
2023-11-12T04:23:33.902Z,4.76
2023-11-12T04:26:00.555Z,4.62
2023-11-12T04:28:28.488Z,4.46
2023-11-12T04:30:56.190Z,4.45
2023-11-12T04:33:22.945Z,4.49
2023-11-12T04:35:51.028Z,4.42
2023-11-12T04:38:18.139Z,4.28
2023-11-12T04:40:45.613Z,4.26
2023-11-12T04:43:13.656Z,4.32
2023-11-12T04:45:40.378Z,4.32
2023-11-12T04:48:07.096Z,4.32
2023-11-12T04:50:34.238Z,4.29
2023-11-12T04:53:01.153Z,4.24
2023-11-12T04:55:27.701Z,4.24
2023-11-12T04:57:54.262Z,4.24
2023-11-12T05:00:21.064Z,4.24
2023-11-12T05:02:47.670Z,4.22
2023-11-12T05:05:14.489Z,4.22
2023-11-12T05:07:41.042Z,4.15
2023-11-12T05:10:09.804Z,4.17
2023-11-12T05:12:36.530Z,4.16
2023-11-12T05:15:03.411Z,4.17
2023-11-12T05:17:30.266Z,4.17
2023-11-12T05:19:57.161Z,4.21
2023-11-12T05:22:23.797Z,4.25
2023-11-12T05:24:52.526Z,4.29
2023-11-12T05:27:19.865Z,4.34
2023-11-12T05:29:46.389Z,4.40
2023-11-12T05:32:12.934Z,4.45
2023-11-12T05:34:40.397Z,4.51
2023-11-12T05:37:07.230Z,4.54
2023-11-12T05:39:33.980Z,4.62
2023-11-12T05:42:00.583Z,4.63
2023-11-12T05:44:27.104Z,4.68
2023-11-12T05:46:53.583Z,4.78
2023-11-12T05:49:20.470Z,4.83
2023-11-12T05:51:47.012Z,4.82
2023-11-12T05:54:15.761Z,4.81
2023-11-12T05:56:43.924Z,4.89
2023-11-12T05:59:10.420Z,4.93
2023-11-12T06:01:36.984Z,4.98
2023-11-12T06:04:03.894Z,4.98
2023-11-12T06:06:30.576Z,4.99
2023-11-12T06:08:57.779Z,4.99
2023-11-12T06:11:24.413Z,4.97
2023-11-12T06:13:50.871Z,4.98
2023-11-12T06:16:17.454Z,5.04
2023-11-12T06:18:44.434Z,5.10
2023-11-12T06:21:11.207Z,5.18
2023-11-12T06:23:42.809Z,5.20
2023-11-12T06:26:09.317Z,5.17
2023-11-12T06:28:35.816Z,5.16
2023-11-12T06:31:02.295Z,5.18
2023-11-12T06:33:28.950Z,5.20
2023-11-12T06:35:55.821Z,5.22
2023-11-12T06:38:22.397Z,5.24
2023-11-12T06:40:49.736Z,5.24
2023-11-12T06:43:16.245Z,5.20
2023-11-12T06:45:43.210Z,5.11
2023-11-12T06:48:09.749Z,5.08
2023-11-12T06:50:36.265Z,5.09
2023-11-12T06:53:04.515Z,5.13
2023-11-12T06:55:31.370Z,5.15
2023-11-12T06:57:57.826Z,5.17
2023-11-12T07:00:24.356Z,5.22
2023-11-12T07:02:50.887Z,5.24
2023-11-12T07:05:18.034Z,5.25
2023-11-12T07:07:44.645Z,5.28
2023-11-12T07:10:13.188Z,5.30
2023-11-12T07:12:39.816Z,5.34
2023-11-12T07:15:07.277Z,5.38
2023-11-12T07:17:36.904Z,5.41
2023-11-12T07:20:03.990Z,5.43
2023-11-12T07:22:31.790Z,5.47
2023-11-12T07:25:01.060Z,5.48
2023-11-12T07:27:27.861Z,5.52
2023-11-12T07:29:54.465Z,5.54
2023-11-12T07:32:22.173Z,5.57
2023-11-12T07:34:49.161Z,5.54
2023-11-12T07:37:15.853Z,5.55
2023-11-12T07:39:42.557Z,5.56
2023-11-12T07:42:09.113Z,5.54
2023-11-12T07:44:36.675Z,5.57
2023-11-12T07:47:05.842Z,5.57
2023-11-12T07:49:33.141Z,5.54
2023-11-12T07:51:59.674Z,5.52
2023-11-12T07:54:27.341Z,5.53
2023-11-12T07:56:53.911Z,5.56
2023-11-12T07:59:20.438Z,5.60
2023-11-12T08:01:50.949Z,5.66
2023-11-12T08:04:18.602Z,5.70
2023-11-12T08:06:50.524Z,5.78
2023-11-12T08:09:17.247Z,5.86
2023-11-12T08:11:43.884Z,5.92
2023-11-12T08:14:10.620Z,5.98
2023-11-12T08:16:37.952Z,6.01
2023-11-12T08:19:04.728Z,6.04
2023-11-12T08:21:31.291Z,6.08
2023-11-12T08:23:57.907Z,6.13
2023-11-12T08:26:24.394Z,6.18
2023-11-12T08:28:52.736Z,6.22
2023-11-12T08:31:19.284Z,6.29
2023-11-12T08:33:45.864Z,6.33
2023-11-12T08:36:12.483Z,6.38
2023-11-12T08:38:38.970Z,6.45
2023-11-12T08:41:07.005Z,6.48
2023-11-12T08:43:33.741Z,6.52
2023-11-12T08:46:00.626Z,6.58
2023-11-12T08:48:32.845Z,6.63
2023-11-12T08:51:00.222Z,6.71
2023-11-12T08:53:28.688Z,6.79
2023-11-12T08:55:55.352Z,6.83
2023-11-12T08:58:22.881Z,6.85
2023-11-12T09:00:49.699Z,6.85
2023-11-12T09:03:16.562Z,6.87
2023-11-12T09:05:43.171Z,6.92
2023-11-12T09:08:09.673Z,6.96
2023-11-12T09:10:36.188Z,6.99
2023-11-12T09:13:02.767Z,7.03
2023-11-12T09:15:29.277Z,7.05
2023-11-12T09:17:56.708Z,7.08
2023-11-12T09:20:24.112Z,7.09
2023-11-12T09:22:50.916Z,7.10
2023-11-12T09:25:17.632Z,7.08
2023-11-12T09:27:46.226Z,7.05
2023-11-12T09:30:13.162Z,7.03
2023-11-12T09:32:40.151Z,7.01
2023-11-12T09:35:07.799Z,7.01
2023-11-12T09:37:34.399Z,7.01
2023-11-12T09:40:01.363Z,7.01
2023-11-12T09:42:29.823Z,7.02
2023-11-12T09:44:57.081Z,7.05
2023-11-12T09:47:43.620Z,7.12
2023-11-12T09:50:13.380Z,7.19
2023-11-12T09:52:39.968Z,7.29
2023-11-12T09:55:08.176Z,7.47
2023-11-12T09:57:34.706Z,7.64
2023-11-12T10:00:03.566Z,7.79
2023-11-12T10:02:32.945Z,7.90
2023-11-12T10:05:00.954Z,7.92
2023-11-12T10:07:27.604Z,7.98
2023-11-12T10:09:55.482Z,8.03
2023-11-12T10:12:22.840Z,8.08
2023-11-12T10:15:02.220Z,8.12
2023-11-12T10:17:28.835Z,8.16
2023-11-12T10:19:59.872Z,8.20
2023-11-12T10:22:38.361Z,8.21
2023-11-12T10:25:05.433Z,8.19
2023-11-12T10:27:32.137Z,8.15
2023-11-12T10:30:17.719Z,8.11
2023-11-12T10:32:44.290Z,8.05
2023-11-12T10:35:11.692Z,8.00
2023-11-12T10:37:56.737Z,7.97
2023-11-12T10:40:24.377Z,7.96
2023-11-12T10:42:59.208Z,7.96
2023-11-12T10:45:28.939Z,7.98
2023-11-12T10:47:59.803Z,8.00
2023-11-12T10:50:26.892Z,8.00
2023-11-12T10:52:54.551Z,8.05
2023-11-12T10:55:23.368Z,8.11
2023-11-12T10:57:53.473Z,8.19
2023-11-12T11:00:21.209Z,8.23
2023-11-12T11:02:48.973Z,8.29
2023-11-12T11:05:17.681Z,8.33
2023-11-12T11:07:49.415Z,8.37
2023-11-12T11:10:17.229Z,8.41
2023-11-12T11:12:44.227Z,8.48
2023-11-12T11:15:42.612Z,8.60
2023-11-12T11:18:32.071Z,8.68
2023-11-12T11:21:07.523Z,8.71
2023-11-12T11:23:50.626Z,8.73
2023-11-12T11:26:29.436Z,8.77
2023-11-12T11:29:11.775Z,8.82
2023-11-12T11:32:02.164Z,8.86
2023-11-12T11:34:40.240Z,8.90
2023-11-12T11:37:07.382Z,8.90
2023-11-12T11:39:34.839Z,8.93
2023-11-12T11:42:07.924Z,8.96
2023-11-12T11:44:41.875Z,8.99
2023-11-12T11:47:19.454Z,9.01
2023-11-12T11:49:49.744Z,9.04
2023-11-12T11:52:21.715Z,9.06
2023-11-12T11:55:13.339Z,9.02
2023-11-12T11:57:52.390Z,9.03
2023-11-12T12:00:19.200Z,9.03
2023-11-12T12:02:46.829Z,9.03
2023-11-12T12:05:16.359Z,9.03
2023-11-12T12:07:46.126Z,9.06
2023-11-12T12:10:30.457Z,9.14
2023-11-12T12:12:57.603Z,9.21
2023-11-12T12:15:24.262Z,9.21
2023-11-12T12:17:50.957Z,9.21
2023-11-12T12:20:17.596Z,9.19
2023-11-12T12:22:44.418Z,9.17
2023-11-12T12:25:11.015Z,9.11
2023-11-12T12:27:38.636Z,9.08
2023-11-12T12:30:09.110Z,9.04
2023-11-12T12:32:38.287Z,9.05
2023-11-12T12:35:07.694Z,9.00
2023-11-12T12:37:34.648Z,8.93
2023-11-12T12:40:15.025Z,8.89
2023-11-12T12:42:44.419Z,8.82
2023-11-12T12:45:17.947Z,8.79
2023-11-12T12:47:45.670Z,8.74
2023-11-12T12:50:27.171Z,8.70
2023-11-12T12:53:13.793Z,8.60
2023-11-12T12:55:41.104Z,8.57
2023-11-12T12:58:08.281Z,8.48
2023-11-12T13:00:37.143Z,8.41
2023-11-12T13:03:04.369Z,8.33
2023-11-12T13:05:30.947Z,8.25
2023-11-12T13:07:57.976Z,8.17
2023-11-12T13:10:24.902Z,8.16
2023-11-12T13:12:53.992Z,8.15
2023-11-12T13:15:22.487Z,8.23
2023-11-12T13:17:49.633Z,8.21
2023-11-12T13:20:16.253Z,8.22
2023-11-12T13:22:43.113Z,8.19
2023-11-12T13:25:12.451Z,8.19
2023-11-12T13:27:40.295Z,8.15
2023-11-12T13:30:08.073Z,8.12
2023-11-12T13:32:35.467Z,8.07
2023-11-12T13:35:02.606Z,8.02
2023-11-12T13:37:31.124Z,7.99
2023-11-12T13:39:57.968Z,8.00
2023-11-12T13:42:24.697Z,7.95
2023-11-12T13:44:54.102Z,7.90
2023-11-12T13:47:22.253Z,7.86
2023-11-12T13:49:48.930Z,7.83
2023-11-12T13:52:16.220Z,7.77
2023-11-12T13:54:43.202Z,7.79
2023-11-12T13:57:10.303Z,7.74
2023-11-12T13:59:37.994Z,7.77
2023-11-12T14:02:04.863Z,7.80
2023-11-12T14:04:33.156Z,7.85
2023-11-12T14:06:59.834Z,7.90
2023-11-12T14:09:26.881Z,7.89
2023-11-12T14:11:53.511Z,7.89
2023-11-12T14:14:20.144Z,7.85
2023-11-12T14:16:47.829Z,7.85
2023-11-12T20:26:45.688Z,4.62
2023-11-12T20:29:13.316Z,4.69
2023-11-12T20:31:43.167Z,4.70
2023-11-12T20:34:13.024Z,4.72
2023-11-12T20:36:40.494Z,4.72
2023-11-12T20:39:16.268Z,4.72
2023-11-12T20:41:46.605Z,4.66
2023-11-12T20:44:14.341Z,4.63
2023-11-12T20:46:45.188Z,4.61
2023-11-12T20:49:17.809Z,4.62
2023-11-12T20:51:46.234Z,4.58
2023-11-12T20:54:19.368Z,4.58
2023-11-12T20:56:46.180Z,4.52
2023-11-12T20:59:14.021Z,4.50
2023-11-12T21:01:40.979Z,4.52
2023-11-12T21:04:11.318Z,4.55
2023-11-12T21:06:40.463Z,4.56
2023-11-12T21:09:09.487Z,4.57
2023-11-12T21:11:40.854Z,4.58
2023-11-12T21:14:12.130Z,4.58
2023-11-12T21:16:39.547Z,4.56
2023-11-12T21:19:06.969Z,4.52
2023-11-12T21:21:34.230Z,4.49
2023-11-12T21:24:06.931Z,4.37
2023-11-12T21:26:34.760Z,4.42
2023-11-12T21:29:01.399Z,4.46
2023-11-12T21:31:28.178Z,4.49
2023-11-12T21:33:54.947Z,4.50
2023-11-12T21:36:21.607Z,4.50
2023-11-12T21:38:48.281Z,4.50
2023-11-12T21:41:14.946Z,4.51
2023-11-12T21:43:41.933Z,4.44
2023-11-12T21:46:10.363Z,4.44
2023-11-12T21:48:38.889Z,4.35
2023-11-12T21:51:07.099Z,4.23
2023-11-12T21:53:36.593Z,4.09
2023-11-12T21:56:05.175Z,4.03
2023-11-12T21:58:32.785Z,3.94
2023-11-12T22:00:59.617Z,3.96
2023-11-12T22:03:27.726Z,3.96
2023-11-12T22:05:55.268Z,3.99
2023-11-12T22:08:23.520Z,4.09
2023-11-12T22:10:53.034Z,4.10
2023-11-12T22:13:20.117Z,4.15
2023-11-12T22:15:50.535Z,4.20
2023-11-12T22:18:18.525Z,4.24
2023-11-12T22:20:45.194Z,4.25
2023-11-12T22:23:12.601Z,4.30
2023-11-12T22:25:39.816Z,4.29
2023-11-12T22:28:06.928Z,4.27
2023-11-12T22:30:33.508Z,4.35
2023-11-12T22:33:00.116Z,4.42
2023-11-12T22:35:26.751Z,4.38
2023-11-12T22:37:53.297Z,4.37
2023-11-12T22:40:21.124Z,4.28
2023-11-12T22:42:47.947Z,4.31
2023-11-12T22:45:14.744Z,4.36
2023-11-12T22:47:42.409Z,4.34
2023-11-12T22:50:10.428Z,4.38
2023-11-12T22:52:37.421Z,4.42
2023-11-12T22:55:04.742Z,4.48
2023-11-12T22:57:33.566Z,4.51
2023-11-12T23:00:05.837Z,4.55
2023-11-12T23:02:33.764Z,4.54
2023-11-12T23:05:01.367Z,4.55
2023-11-12T23:07:28.448Z,4.57
2023-11-12T23:09:56.098Z,4.58
2023-11-12T23:12:22.637Z,4.61
2023-11-12T23:14:52.151Z,4.57
2023-11-12T23:17:22.508Z,4.59
2023-11-12T23:19:49.198Z,4.58
2023-11-12T23:22:16.450Z,4.56
2023-11-12T23:24:42.995Z,4.58
2023-11-12T23:27:09.835Z,4.62
2023-11-12T23:29:36.760Z,4.62
2023-11-12T23:32:09.488Z,4.56
2023-11-12T23:34:36.744Z,4.44
2023-11-12T23:37:06.473Z,4.40
2023-11-12T23:39:33.400Z,4.38
2023-11-12T23:41:59.994Z,4.39
2023-11-12T23:44:26.599Z,4.36
2023-11-12T23:46:53.180Z,4.30
2023-11-12T23:49:19.792Z,4.27
2023-11-12T23:51:46.576Z,4.17
2023-11-12T23:54:13.118Z,4.09
2023-11-12T23:56:39.666Z,4.06
2023-11-12T23:59:06.188Z,4.02
